sensor_id;sensor_type;location;lat;lon;timestamp;pressure;altitude;pressure_sealevel;temperature;humidity
79129;BME280;68529;43.286;23.360;2024-03-17T00:00:37;99637.47;;;8.12;68.04
79129;BME280;68529;43.286;23.360;2024-03-17T00:03:05;99635.84;;;8.07;68.38
79129;BME280;68529;43.286;23.360;2024-03-17T00:05:30;99642.16;;;7.95;68.33
79129;BME280;68529;43.286;23.360;2024-03-17T00:07:56;99642.28;;;7.89;68.74
79129;BME280;68529;43.286;23.360;2024-03-17T00:10:21;99640.44;;;7.94;68.77
79129;BME280;68529;43.286;23.360;2024-03-17T00:12:47;99634.38;;;7.92;68.61
79129;BME280;68529;43.286;23.360;2024-03-17T00:15:12;99632.59;;;7.93;68.81
79129;BME280;68529;43.286;23.360;2024-03-17T00:17:38;99632.59;;;7.93;68.77
79129;BME280;68529;43.286;23.360;2024-03-17T00:20:05;99626.47;;;7.95;68.55
79129;BME280;68529;43.286;23.360;2024-03-17T00:22:36;99635.97;;;7.99;68.35
79129;BME280;68529;43.286;23.360;2024-03-17T00:25:06;99637.56;;;8.08;68.35
79129;BME280;68529;43.286;23.360;2024-03-17T00:27:32;99633.06;;;8.16;67.95
79129;BME280;68529;43.286;23.360;2024-03-17T00:29:58;99621.78;;;8.12;68.16
79129;BME280;68529;43.286;23.360;2024-03-17T00:32:23;99621.09;;;8.03;68.19
79129;BME280;68529;43.286;23.360;2024-03-17T00:34:49;99629.97;;;7.93;68.58
79129;BME280;68529;43.286;23.360;2024-03-17T00:37:14;99624.38;;;7.65;69.29
79129;BME280;68529;43.286;23.360;2024-03-17T00:39:40;99627.28;;;7.47;69.72
79129;BME280;68529;43.286;23.360;2024-03-17T00:42:05;99623.59;;;7.60;69.55
79129;BME280;68529;43.286;23.360;2024-03-17T00:44:31;99626.00;;;7.72;69.23
79129;BME280;68529;43.286;23.360;2024-03-17T00:46:57;99623.19;;;7.84;69.44
79129;BME280;68529;43.286;23.360;2024-03-17T00:49:22;99626.47;;;7.95;69.06
79129;BME280;68529;43.286;23.360;2024-03-17T00:51:48;99620.13;;;8.08;68.92
79129;BME280;68529;43.286;23.360;2024-03-17T00:54:15;99628.59;;;8.23;68.99
79129;BME280;68529;43.286;23.360;2024-03-17T00:56:43;99620.66;;;8.27;68.38
79129;BME280;68529;43.286;23.360;2024-03-17T00:59:08;99620.66;;;8.29;68.24
79129;BME280;68529;43.286;23.360;2024-03-17T01:01:33;99618.91;;;8.28;68.71
79129;BME280;68529;43.286;23.360;2024-03-17T01:03:59;99627.53;;;8.33;68.30
79129;BME280;68529;43.286;23.360;2024-03-17T01:06:24;99620.59;;;8.32;67.95
79129;BME280;68529;43.286;23.360;2024-03-17T01:08:49;99627.59;;;8.31;68.30
79129;BME280;68529;43.286;23.360;2024-03-17T01:11:17;99630.16;;;8.33;68.43
79129;BME280;68529;43.286;23.360;2024-03-17T01:13:44;99621.47;;;8.31;68.44
79129;BME280;68529;43.286;23.360;2024-03-17T01:16:09;99621.63;;;8.21;68.85
79129;BME280;68529;43.286;23.360;2024-03-17T01:18:34;99617.22;;;8.23;68.73
79129;BME280;68529;43.286;23.360;2024-03-17T01:21:02;99618.00;;;8.30;68.90
79129;BME280;68529;43.286;23.360;2024-03-17T01:23:27;99623.13;;;8.36;68.89
79129;BME280;68529;43.286;23.360;2024-03-17T01:25:53;99612.53;;;8.42;69.02
79129;BME280;68529;43.286;23.360;2024-03-17T01:28:18;99608.06;;;8.47;68.86
79129;BME280;68529;43.286;23.360;2024-03-17T01:30:44;99616.69;;;8.52;68.89
79129;BME280;68529;43.286;23.360;2024-03-17T01:33:10;99614.09;;;8.51;68.96
79129;BME280;68529;43.286;23.360;2024-03-17T01:35:35;99608.81;;;8.54;68.98
79129;BME280;68529;43.286;23.360;2024-03-17T01:38:01;99612.16;;;8.60;68.95
79129;BME280;68529;43.286;23.360;2024-03-17T01:40:26;99610.28;;;8.65;69.04
79129;BME280;68529;43.286;23.360;2024-03-17T01:42:52;99608.47;;;8.69;68.93
79129;BME280;68529;43.286;23.360;2024-03-17T01:47:54;99606.84;;;8.63;68.86
79129;BME280;68529;43.286;23.360;2024-03-17T01:50:23;99613.69;;;8.70;69.17
79129;BME280;68529;43.286;23.360;2024-03-17T01:52:51;99613.47;;;8.81;69.25
79129;BME280;68529;43.286;23.360;2024-03-17T01:55:18;99611.72;;;8.80;69.17
79129;BME280;68529;43.286;23.360;2024-03-17T01:57:44;99604.78;;;8.79;69.23
79129;BME280;68529;43.286;23.360;2024-03-17T02:00:10;99603.97;;;8.75;69.32
79129;BME280;68529;43.286;23.360;2024-03-17T02:02:37;99602.09;;;8.82;69.28
79129;BME280;68529;43.286;23.360;2024-03-17T02:05:03;99603.06;;;8.78;69.35
79129;BME280;68529;43.286;23.360;2024-03-17T02:07:29;99602.22;;;8.76;69.62
79129;BME280;68529;43.286;23.360;2024-03-17T02:09:56;99608.53;;;8.66;69.83
79129;BME280;68529;43.286;23.360;2024-03-17T02:12:23;99593.63;;;8.69;69.98
79129;BME280;68529;43.286;23.360;2024-03-17T02:14:48;99594.44;;;8.73;69.67
79129;BME280;68529;43.286;23.360;2024-03-17T02:17:14;99603.84;;;8.82;69.77
79129;BME280;68529;43.286;23.360;2024-03-17T02:19:39;99595.25;;;8.76;69.81
79129;BME280;68529;43.286;23.360;2024-03-17T02:22:13;99602.88;;;8.86;69.84
79129;BME280;68529;43.286;23.360;2024-03-17T02:24:39;99591.56;;;8.84;69.93
79129;BME280;68529;43.286;23.360;2024-03-17T02:27:05;99594.13;;;8.87;69.75
79129;BME280;68529;43.286;23.360;2024-03-17T02:29:30;99592.94;;;9.01;69.49
79129;BME280;68529;43.286;23.360;2024-03-17T02:31:55;99591.25;;;8.99;69.22
79129;BME280;68529;43.286;23.360;2024-03-17T02:34:21;99591.28;;;8.97;69.25
79129;BME280;68529;43.286;23.360;2024-03-17T02:36:46;99583.53;;;8.91;69.45
79129;BME280;68529;43.286;23.360;2024-03-17T02:39:12;99587.06;;;8.90;69.46
79129;BME280;68529;43.286;23.360;2024-03-17T02:41:56;99588.66;;;8.97;69.37
79129;BME280;68529;43.286;23.360;2024-03-17T02:44:21;99585.91;;;9.02;69.06
79129;BME280;68529;43.286;23.360;2024-03-17T02:46:47;99587.41;;;8.75;69.34
79129;BME280;68529;43.286;23.360;2024-03-17T02:49:13;99584.91;;;8.69;69.27
79129;BME280;68529;43.286;23.360;2024-03-17T02:51:39;99593.03;;;8.57;69.78
79129;BME280;68529;43.286;23.360;2024-03-17T02:54:05;99588.38;;;8.27;70.19
79129;BME280;68529;43.286;23.360;2024-03-17T02:56:31;99584.53;;;8.46;69.72
79129;BME280;68529;43.286;23.360;2024-03-17T02:58:57;99590.72;;;8.42;69.80
79129;BME280;68529;43.286;23.360;2024-03-17T03:01:22;99588.16;;;8.39;69.86
79129;BME280;68529;43.286;23.360;2024-03-17T03:03:47;99591.75;;;8.35;69.93
79129;BME280;68529;43.286;23.360;2024-03-17T03:06:14;99585.53;;;8.39;69.81
79129;BME280;68529;43.286;23.360;2024-03-17T03:08:40;99585.72;;;8.31;69.71
79129;BME280;68529;43.286;23.360;2024-03-17T03:11:08;99590.06;;;8.31;69.37
79129;BME280;68529;43.286;23.360;2024-03-17T03:13:38;99588.28;;;8.34;69.17
79129;BME280;68529;43.286;23.360;2024-03-17T03:16:08;99590.88;;;8.34;69.15
79129;BME280;68529;43.286;23.360;2024-03-17T03:18:35;99593.44;;;8.37;68.67
79129;BME280;68529;43.286;23.360;2024-03-17T03:21:00;99597.81;;;8.35;69.09
79129;BME280;68529;43.286;23.360;2024-03-17T03:23:26;99588.34;;;8.30;68.60
79129;BME280;68529;43.286;23.360;2024-03-17T03:25:59;99589.41;;;8.18;69.09
79129;BME280;68529;43.286;23.360;2024-03-17T03:28:26;99593.09;;;8.09;69.04
79129;BME280;68529;43.286;23.360;2024-03-17T03:30:52;99597.47;;;8.07;69.24
79129;BME280;68529;43.286;23.360;2024-03-17T03:33:21;99594.91;;;8.04;69.33
79129;BME280;68529;43.286;23.360;2024-03-17T03:35:47;99600.28;;;7.98;69.09
79129;BME280;68529;43.286;23.360;2024-03-17T03:38:13;99602.06;;;7.95;69.41
79129;BME280;68529;43.286;23.360;2024-03-17T03:40:42;99600.44;;;7.88;69.28
79129;BME280;68529;43.286;23.360;2024-03-17T03:43:11;99604.94;;;7.80;69.56
79129;BME280;68529;43.286;23.360;2024-03-17T03:45:37;99600.69;;;7.76;69.87
79129;BME280;68529;43.286;23.360;2024-03-17T03:48:03;99601.59;;;7.73;69.83
79129;BME280;68529;43.286;23.360;2024-03-17T03:50:29;99608.63;;;7.68;69.58
79129;BME280;68529;43.286;23.360;2024-03-17T03:52:55;99612.09;;;7.70;70.20
79129;BME280;68529;43.286;23.360;2024-03-17T03:55:20;99608.53;;;7.74;69.77
79129;BME280;68529;43.286;23.360;2024-03-17T03:57:46;99613.91;;;7.65;69.93
79129;BME280;68529;43.286;23.360;2024-03-17T04:00:16;99618.25;;;7.68;70.00
79129;BME280;68529;43.286;23.360;2024-03-17T04:02:44;99619.91;;;7.72;69.88
79129;BME280;68529;43.286;23.360;2024-03-17T04:05:10;99619.03;;;7.71;69.74
79129;BME280;68529;43.286;23.360;2024-03-17T04:07:38;99630.28;;;7.78;69.48
79129;BME280;68529;43.286;23.360;2024-03-17T04:10:05;99626.81;;;7.76;69.68
79129;BME280;68529;43.286;23.360;2024-03-17T04:12:30;99630.94;;;7.89;69.67
79129;BME280;68529;43.286;23.360;2024-03-17T04:14:57;99629.78;;;8.05;69.41
79129;BME280;68529;43.286;23.360;2024-03-17T04:17:23;99633.16;;;8.11;68.75
79129;BME280;68529;43.286;23.360;2024-03-17T04:19:51;99632.19;;;8.15;68.60
79129;BME280;68529;43.286;23.360;2024-03-17T04:22:18;99637.41;;;8.17;68.79
79129;BME280;68529;43.286;23.360;2024-03-17T04:24:48;99635.59;;;8.20;68.58
79129;BME280;68529;43.286;23.360;2024-03-17T04:27:19;99633.75;;;8.26;68.32
79129;BME280;68529;43.286;23.360;2024-03-17T04:29:46;99644.16;;;8.32;67.93
79129;BME280;68529;43.286;23.360;2024-03-17T04:32:13;99646.72;;;8.33;67.90
79129;BME280;68529;43.286;23.360;2024-03-17T04:34:38;99651.13;;;8.31;67.83
79129;BME280;68529;43.286;23.360;2024-03-17T04:37:04;99651.97;;;8.33;67.62
79129;BME280;68529;43.286;23.360;2024-03-17T04:39:29;99658.06;;;8.34;67.71
79129;BME280;68529;43.286;23.360;2024-03-17T04:41:56;99656.31;;;8.33;67.42
79129;BME280;68529;43.286;23.360;2024-03-17T04:44:22;99658.06;;;8.34;67.52
79129;BME280;68529;43.286;23.360;2024-03-17T04:46:48;99652.88;;;8.31;67.72
79129;BME280;68529;43.286;23.360;2024-03-17T04:49:13;99655.72;;;8.15;67.76
79129;BME280;68529;43.286;23.360;2024-03-17T04:51:39;99658.50;;;8.08;68.13
79129;BME280;68529;43.286;23.360;2024-03-17T04:54:04;99664.50;;;8.13;67.72
79129;BME280;68529;43.286;23.360;2024-03-17T04:56:32;99667.91;;;8.18;67.89
79129;BME280;68529;43.286;23.360;2024-03-17T04:58:57;99669.09;;;8.00;67.98
79129;BME280;68529;43.286;23.360;2024-03-17T05:01:23;99663.09;;;7.94;67.98
79129;BME280;68529;43.286;23.360;2024-03-17T05:03:51;99671.09;;;7.86;68.03
79129;BME280;68529;43.286;23.360;2024-03-17T05:06:16;99668.47;;;7.86;68.27
79129;BME280;68529;43.286;23.360;2024-03-17T05:08:42;99665.03;;;7.83;68.14
79129;BME280;68529;43.286;23.360;2024-03-17T05:11:08;99668.72;;;7.71;68.27
79129;BME280;68529;43.286;23.360;2024-03-17T05:13:35;99666.41;;;7.53;68.40
79129;BME280;68529;43.286;23.360;2024-03-17T05:16:03;99665.78;;;7.34;68.96
79129;BME280;68529;43.286;23.360;2024-03-17T05:18:29;99665.00;;;7.31;69.50
79129;BME280;68529;43.286;23.360;2024-03-17T05:21:02;99660.34;;;7.49;69.41
79129;BME280;68529;43.286;23.360;2024-03-17T05:23:29;99674.03;;;7.65;69.11
79129;BME280;68529;43.286;23.360;2024-03-17T05:25:55;99663.72;;;7.57;68.96
79129;BME280;68529;43.286;23.360;2024-03-17T05:28:22;99667.88;;;7.69;68.94
79129;BME280;68529;43.286;23.360;2024-03-17T05:30:48;99665.19;;;7.75;68.99
79129;BME280;68529;43.286;23.360;2024-03-17T05:33:13;99665.03;;;7.83;69.09
79129;BME280;68529;43.286;23.360;2024-03-17T05:35:39;99669.41;;;7.84;68.93
79129;BME280;68529;43.286;23.360;2024-03-17T05:38:04;99670.59;;;7.63;69.44
79129;BME280;68529;43.286;23.360;2024-03-17T05:40:30;99666.31;;;7.59;69.75
79129;BME280;68529;43.286;23.360;2024-03-17T05:42:56;99666.97;;;7.72;69.98
79129;BME280;68529;43.286;23.360;2024-03-17T05:45:21;99660.13;;;7.63;69.91
79129;BME280;68529;43.286;23.360;2024-03-17T05:47:49;99666.28;;;7.62;70.57
79129;BME280;68529;43.286;23.360;2024-03-17T05:50:15;99655.50;;;7.80;70.15
79129;BME280;68529;43.286;23.360;2024-03-17T05:52:41;99657.69;;;8.06;70.14
79129;BME280;68529;43.286;23.360;2024-03-17T05:55:06;99653.66;;;8.36;69.51
79129;BME280;68529;43.286;23.360;2024-03-17T05:57:32;99650.69;;;8.54;69.29
79129;BME280;68529;43.286;23.360;2024-03-17T05:59:57;99652.75;;;8.79;69.19
79129;BME280;68529;43.286;23.360;2024-03-17T06:02:23;99660.25;;;8.98;68.91
79129;BME280;68529;43.286;23.360;2024-03-17T06:04:48;99657.22;;;9.16;68.82
79129;BME280;68529;43.286;23.360;2024-03-17T06:07:13;99655.81;;;9.40;68.31
79129;BME280;68529;43.286;23.360;2024-03-17T06:09:39;99658.13;;;9.53;68.08
79129;BME280;68529;43.286;23.360;2024-03-17T06:12:04;99648.22;;;9.66;68.34
79129;BME280;68529;43.286;23.360;2024-03-17T06:14:31;99664.09;;;9.95;67.98
79129;BME280;68529;43.286;23.360;2024-03-17T06:16:57;99666.63;;;9.98;67.88
79129;BME280;68529;43.286;23.360;2024-03-17T06:19:22;99663.94;;;10.01;67.92
79129;BME280;68529;43.286;23.360;2024-03-17T06:21:48;99669.19;;;10.01;67.77
79129;BME280;68529;43.286;23.360;2024-03-17T06:24:13;99669.72;;;10.15;67.78
79129;BME280;68529;43.286;23.360;2024-03-17T06:26:38;99665.47;;;10.10;67.84
79129;BME280;68529;43.286;23.360;2024-03-17T06:29:04;99663.78;;;10.07;67.78
79129;BME280;68529;43.286;23.360;2024-03-17T06:31:29;99659.69;;;9.95;68.20
79129;BME280;68529;43.286;23.360;2024-03-17T06:33:56;99670.47;;;9.85;68.49
79129;BME280;68529;43.286;23.360;2024-03-17T06:36:21;99680.75;;;9.92;68.71
79129;BME280;68529;43.286;23.360;2024-03-17T06:38:47;99685.47;;;10.15;68.43
79129;BME280;68529;43.286;23.360;2024-03-17T06:41:13;99692.28;;;10.22;68.23
79129;BME280;68529;43.286;23.360;2024-03-17T06:43:40;99695.69;;;10.26;67.95
79129;BME280;68529;43.286;23.360;2024-03-17T06:46:07;99687.34;;;10.44;67.60
79129;BME280;68529;43.286;23.360;2024-03-17T06:48:33;99694.78;;;10.61;66.88
79129;BME280;68529;43.286;23.360;2024-03-17T06:50:59;99698.53;;;10.83;66.56
79129;BME280;68529;43.286;23.360;2024-03-17T06:53:24;99697.03;;;10.73;66.75
79129;BME280;68529;43.286;23.360;2024-03-17T06:55:59;99696.69;;;10.85;66.83
79129;BME280;68529;43.286;23.360;2024-03-17T06:58:26;99693.72;;;10.97;66.78
79129;BME280;68529;43.286;23.360;2024-03-17T07:01:02;99703.69;;;10.86;66.61
79129;BME280;68529;43.286;23.360;2024-03-17T07:03:29;99713.09;;;10.62;67.18
79129;BME280;68529;43.286;23.360;2024-03-17T07:05:56;99712.59;;;10.80;67.17
79129;BME280;68529;43.286;23.360;2024-03-17T07:08:22;99705.78;;;11.04;67.06
79129;BME280;68529;43.286;23.360;2024-03-17T07:10:56;99709.59;;;11.23;66.54
79129;BME280;68529;43.286;23.360;2024-03-17T07:13:21;99703.03;;;11.38;66.05
79129;BME280;68529;43.286;23.360;2024-03-17T07:15:47;99703.50;;;11.50;66.25
79129;BME280;68529;43.286;23.360;2024-03-17T07:18:13;99706.63;;;11.63;65.97
79129;BME280;68529;43.286;23.360;2024-03-17T07:20:38;99703.75;;;11.72;65.52
79129;BME280;68529;43.286;23.360;2024-03-17T07:23:04;99708.75;;;11.80;65.21
79129;BME280;68529;43.286;23.360;2024-03-17T07:25:30;99709.53;;;11.83;65.50
79129;BME280;68529;43.286;23.360;2024-03-17T07:27:55;99710.16;;;11.90;65.40
79129;BME280;68529;43.286;23.360;2024-03-17T07:30:20;99711.72;;;11.97;64.84
79129;BME280;68529;43.286;23.360;2024-03-17T07:32:46;99707.94;;;12.04;65.17
79129;BME280;68529;43.286;23.360;2024-03-17T07:35:12;99703.38;;;12.09;65.23
79129;BME280;68529;43.286;23.360;2024-03-17T07:37:37;99704.06;;;12.15;65.08
79129;BME280;68529;43.286;23.360;2024-03-17T07:40:05;99706.75;;;12.14;65.39
79129;BME280;68529;43.286;23.360;2024-03-17T07:42:32;99703.09;;;12.18;65.22
79129;BME280;68529;43.286;23.360;2024-03-17T07:44:59;99708.25;;;12.21;64.91
79129;BME280;68529;43.286;23.360;2024-03-17T07:47:24;99705.69;;;12.19;64.70
79129;BME280;68529;43.286;23.360;2024-03-17T07:49:50;99706.53;;;12.20;65.31
79129;BME280;68529;43.286;23.360;2024-03-17T07:52:15;99712.44;;;12.26;65.07
79129;BME280;68529;43.286;23.360;2024-03-17T07:54:41;99707.00;;;12.31;64.91
79129;BME280;68529;43.286;23.360;2024-03-17T07:57:06;99703.34;;;12.37;64.82
79129;BME280;68529;43.286;23.360;2024-03-17T07:59:34;99695.28;;;12.41;64.73
79129;BME280;68529;43.286;23.360;2024-03-17T08:01:59;99697.25;;;12.35;64.56
79129;BME280;68529;43.286;23.360;2024-03-17T08:04:24;99684.28;;;12.28;64.74
79129;BME280;68529;43.286;23.360;2024-03-17T08:06:50;99683.84;;;12.42;64.40
79129;BME280;68529;43.286;23.360;2024-03-17T08:09:15;99686.81;;;12.56;64.20
79129;BME280;68529;43.286;23.360;2024-03-17T08:11:41;99696.81;;;12.71;63.86
79129;BME280;68529;43.286;23.360;2024-03-17T08:14:11;99688.31;;;12.88;63.76
79129;BME280;68529;43.286;23.360;2024-03-17T08:16:37;99694.78;;;13.03;63.72
79129;BME280;68529;43.286;23.360;2024-03-17T08:19:02;99688.97;;;13.18;63.71
79129;BME280;68529;43.286;23.360;2024-03-17T08:21:28;99689.72;;;13.21;63.40
79129;BME280;68529;43.286;23.360;2024-03-17T08:23:55;99690.34;;;13.28;62.73
79129;BME280;68529;43.286;23.360;2024-03-17T08:26:20;99684.88;;;13.32;61.59
79129;BME280;68529;43.286;23.360;2024-03-17T08:28:45;99688.84;;;13.44;61.48
79129;BME280;68529;43.286;23.360;2024-03-17T08:31:12;99687.31;;;13.60;61.25
79129;BME280;68529;43.286;23.360;2024-03-17T08:33:37;99680.81;;;13.69;60.85
79129;BME280;68529;43.286;23.360;2024-03-17T08:36:04;99680.38;;;13.79;60.40
79129;BME280;68529;43.286;23.360;2024-03-17T08:38:31;99684.41;;;13.88;60.07
79129;BME280;68529;43.286;23.360;2024-03-17T08:41:02;99675.47;;;13.92;59.79
79129;BME280;68529;43.286;23.360;2024-03-17T08:43:28;99666.31;;;14.00;59.66
79129;BME280;68529;43.286;23.360;2024-03-17T08:45:57;99674.22;;;14.00;58.55
79129;BME280;68529;43.286;23.360;2024-03-17T08:48:25;99669.53;;;14.07;58.33
79129;BME280;68529;43.286;23.360;2024-03-17T08:50:52;99662.09;;;14.17;58.52
79129;BME280;68529;43.286;23.360;2024-03-17T08:53:18;99659.94;;;14.26;57.66
79129;BME280;68529;43.286;23.360;2024-03-17T08:55:43;99653.13;;;14.41;57.26
79129;BME280;68529;43.286;23.360;2024-03-17T08:58:10;99658.03;;;14.50;56.95
79129;BME280;68529;43.286;23.360;2024-03-17T09:00:35;99657.38;;;14.65;56.36
79129;BME280;68529;43.286;23.360;2024-03-17T09:03:02;99654.97;;;14.79;56.21
79129;BME280;68529;43.286;23.360;2024-03-17T09:05:27;99649.25;;;14.88;55.61
79129;BME280;68529;43.286;23.360;2024-03-17T09:07:52;99646.47;;;14.91;55.68
79129;BME280;68529;43.286;23.360;2024-03-17T09:10:18;99647.22;;;14.75;55.00
79129;BME280;68529;43.286;23.360;2024-03-17T09:12:43;99636.16;;;14.85;54.83
79129;BME280;68529;43.286;23.360;2024-03-17T09:15:09;99642.53;;;15.00;54.70
79129;BME280;68529;43.286;23.360;2024-03-17T09:17:37;99634.69;;;14.98;54.32
79129;BME280;68529;43.286;23.360;2024-03-17T09:20:03;99629.25;;;15.20;53.87
79129;BME280;68529;43.286;23.360;2024-03-17T09:22:28;99634.06;;;15.49;53.94
79129;BME280;68529;43.286;23.360;2024-03-17T09:24:54;99624.66;;;15.61;53.71
79129;BME280;68529;43.286;23.360;2024-03-17T09:27:20;99628.09;;;15.80;54.29
79129;BME280;68529;43.286;23.360;2024-03-17T09:29:47;99626.66;;;16.26;54.40
79129;BME280;68529;43.286;23.360;2024-03-17T09:32:13;99624.75;;;16.95;53.25
79129;BME280;68529;43.286;23.360;2024-03-17T09:34:51;99614.50;;;17.20;52.85
79129;BME280;68529;43.286;23.360;2024-03-17T09:37:17;99614.19;;;17.11;52.61
79129;BME280;68529;43.286;23.360;2024-03-17T09:39:42;99612.88;;;17.02;52.49
79129;BME280;68529;43.286;23.360;2024-03-17T09:42:17;99618.03;;;17.05;52.14
79129;BME280;68529;43.286;23.360;2024-03-17T09:44:46;99607.16;;;17.10;52.07
79129;BME280;68529;43.286;23.360;2024-03-17T09:47:16;99607.25;;;17.24;51.22
79129;BME280;68529;43.286;23.360;2024-03-17T09:49:43;99601.75;;;17.42;49.79
79129;BME280;68529;43.286;23.360;2024-03-17T09:52:25;99598.25;;;17.26;47.67
79129;BME280;68529;43.286;23.360;2024-03-17T10:16:28;99605.94;;;17.31;46.08
79129;BME280;68529;43.286;23.360;2024-03-17T10:19:15;99605.13;;;17.30;47.34
79129;BME280;68529;43.286;23.360;2024-03-17T10:21:45;99602.19;;;17.19;48.13
79129;BME280;68529;43.286;23.360;2024-03-17T10:26:49;99604.13;;;17.00;48.35
79129;BME280;68529;43.286;23.360;2024-03-17T10:29:26;99604.50;;;16.94;47.48
79129;BME280;68529;43.286;23.360;2024-03-17T10:32:01;99605.25;;;16.96;47.38
79129;BME280;68529;43.286;23.360;2024-03-17T10:34:28;99597.47;;;16.93;46.19
79129;BME280;68529;43.286;23.360;2024-03-17T10:37:07;99605.91;;;16.84;44.96
79129;BME280;68529;43.286;23.360;2024-03-17T10:39:37;99605.47;;;16.76;45.19
79129;BME280;68529;43.286;23.360;2024-03-17T10:42:04;99610.81;;;16.59;46.10
79129;BME280;68529;43.286;23.360;2024-03-17T10:44:31;99609.41;;;16.52;47.29
79129;BME280;68529;43.286;23.360;2024-03-17T10:46:59;99612.13;;;16.50;47.21
79129;BME280;68529;43.286;23.360;2024-03-17T10:49:29;99610.03;;;16.40;46.81
79129;BME280;68529;43.286;23.360;2024-03-17T10:52:08;99605.91;;;16.34;47.25
79129;BME280;68529;43.286;23.360;2024-03-17T10:54:40;99613.09;;;16.32;47.43
79129;BME280;68529;43.286;23.360;2024-03-17T10:57:31;99612.38;;;16.28;47.37
79129;BME280;68529;43.286;23.360;2024-03-17T11:00:00;99615.19;;;16.25;47.78
79129;BME280;68529;43.286;23.360;2024-03-17T11:02:29;99606.53;;;16.22;47.87
79129;BME280;68529;43.286;23.360;2024-03-17T11:05:02;99608.34;;;16.21;48.58
79129;BME280;68529;43.286;23.360;2024-03-17T11:07:29;99605.84;;;16.18;49.05
79129;BME280;68529;43.286;23.360;2024-03-17T11:09:57;99604.28;;;16.14;49.79
79129;BME280;68529;43.286;23.360;2024-03-17T11:12:41;99603.56;;;16.11;49.06
79129;BME280;68529;43.286;23.360;2024-03-17T11:17:48;99599.69;;;16.01;49.24
79129;BME280;68529;43.286;23.360;2024-03-17T11:20:24;99600.78;;;15.97;48.83
79129;BME280;68529;43.286;23.360;2024-03-17T11:22:51;99602.88;;;15.90;49.33
79129;BME280;68529;43.286;23.360;2024-03-17T11:27:56;99604.13;;;15.83;49.92
79129;BME280;68529;43.286;23.360;2024-03-17T11:44:32;99590.88;;;15.66;50.39
79129;BME280;68529;43.286;23.360;2024-03-17T11:47:07;99583.72;;;15.68;50.18
79129;BME280;68529;43.286;23.360;2024-03-17T11:49:35;99584.56;;;15.68;50.31
79129;BME280;68529;43.286;23.360;2024-03-17T11:52:11;99573.13;;;15.68;50.22
79129;BME280;68529;43.286;23.360;2024-03-17T11:54:39;99571.38;;;15.67;49.99
79129;BME280;68529;43.286;23.360;2024-03-17T11:57:07;99565.72;;;15.57;50.02
79129;BME280;68529;43.286;23.360;2024-03-17T11:59:33;99566.72;;;15.55;50.32
79129;BME280;68529;43.286;23.360;2024-03-17T12:01:59;99563.84;;;15.59;50.56
79129;BME280;68529;43.286;23.360;2024-03-17T12:04:25;99556.75;;;15.60;49.99
79129;BME280;68529;43.286;23.360;2024-03-17T12:06:52;99561.09;;;15.61;49.79
79129;BME280;68529;43.286;23.360;2024-03-17T12:11:43;99556.66;;;15.61;49.52
79129;BME280;68529;43.286;23.360;2024-03-17T12:14:14;99547.78;;;15.62;49.13
79129;BME280;68529;43.286;23.360;2024-03-17T12:16:50;99553.25;;;15.59;48.49
79129;BME280;68529;43.286;23.360;2024-03-17T12:19:17;99551.47;;;15.60;48.58
79129;BME280;68529;43.286;23.360;2024-03-17T12:21:48;99545.44;;;15.56;48.37
79129;BME280;68529;43.286;23.360;2024-03-17T12:24:19;99546.94;;;15.62;48.56
79129;BME280;68529;43.286;23.360;2024-03-17T12:26:46;99542.19;;;15.68;48.95
79129;BME280;68529;43.286;23.360;2024-03-17T12:29:31;99552.63;;;15.71;48.77
79129;BME280;68529;43.286;23.360;2024-03-17T12:34:37;99537.72;;;15.69;48.13
79129;BME280;68529;43.286;23.360;2024-03-17T12:37:03;99538.69;;;15.68;47.57
79129;BME280;68529;43.286;23.360;2024-03-17T12:39:33;99538.59;;;15.69;47.13
79129;BME280;68529;43.286;23.360;2024-03-17T12:44:39;99533.16;;;15.72;47.09
79129;BME280;68529;43.286;23.360;2024-03-17T12:47:09;99538.13;;;15.79;47.06
79129;BME280;68529;43.286;23.360;2024-03-17T12:49:50;99526.22;;;15.87;46.83
79129;BME280;68529;43.286;23.360;2024-03-17T12:52:26;99531.28;;;15.92;46.54
79129;BME280;68529;43.286;23.360;2024-03-17T12:57:47;99518.41;;;16.34;46.24
79129;BME280;68529;43.286;23.360;2024-03-17T13:00:31;99525.28;;;16.38;46.65
79129;BME280;68529;43.286;23.360;2024-03-17T13:02:58;99517.25;;;16.40;45.92
79129;BME280;68529;43.286;23.360;2024-03-17T13:05:23;99510.63;;;16.31;45.88
79129;BME280;68529;43.286;23.360;2024-03-17T13:07:49;99509.44;;;16.37;46.08
79129;BME280;68529;43.286;23.360;2024-03-17T13:10:19;99502.88;;;16.76;45.30
79129;BME280;68529;43.286;23.360;2024-03-17T13:12:48;99498.91;;;16.83;45.91
79129;BME280;68529;43.286;23.360;2024-03-17T13:15:15;99499.44;;;16.90;45.62
79129;BME280;68529;43.286;23.360;2024-03-17T13:17:44;99492.59;;;16.55;45.03
79129;BME280;68529;43.286;23.360;2024-03-17T13:20:16;99497.97;;;16.53;45.18
79129;BME280;68529;43.286;23.360;2024-03-17T13:22:45;99501.03;;;16.61;45.21
79129;BME280;68529;43.286;23.360;2024-03-17T13:25:18;99499.25;;;16.62;45.29
79129;BME280;68529;43.286;23.360;2024-03-17T13:27:45;99500.22;;;16.61;45.58
79129;BME280;68529;43.286;23.360;2024-03-17T13:30:12;99495.50;;;16.66;45.26
79129;BME280;68529;43.286;23.360;2024-03-17T13:32:38;99490.53;;;16.60;44.94
79129;BME280;68529;43.286;23.360;2024-03-17T13:35:06;99495.38;;;16.52;44.87
79129;BME280;68529;43.286;23.360;2024-03-17T13:37:38;99494.78;;;16.47;45.37
79129;BME280;68529;43.286;23.360;2024-03-17T13:40:04;99490.22;;;16.49;45.46
79129;BME280;68529;43.286;23.360;2024-03-17T13:42:30;99487.75;;;16.46;46.39
79129;BME280;68529;43.286;23.360;2024-03-17T13:44:55;99489.47;;;16.47;46.43
79129;BME280;68529;43.286;23.360;2024-03-17T13:47:21;99478.94;;;16.45;46.57
79129;BME280;68529;43.286;23.360;2024-03-17T13:49:47;99477.19;;;16.28;46.23
79129;BME280;68529;43.286;23.360;2024-03-17T13:52:12;99480.31;;;16.19;46.55